createdAt,value
2017-03-05T00:00:07.194Z,8.05
2017-03-05T00:00:47.841Z,8.01
2017-03-05T00:01:28.492Z,8.01
2017-03-05T00:02:09.145Z,7.91
2017-03-05T00:02:49.833Z,8.05
2017-03-05T00:03:30.438Z,7.94
2017-03-05T00:04:11.000Z,8.03
2017-03-05T00:04:51.695Z,8
2017-03-05T00:05:32.284Z,7.93
2017-03-05T00:06:12.835Z,8.05
2017-03-05T00:06:53.533Z,8
2017-03-05T00:07:34.199Z,7.94
2017-03-05T00:08:15.866Z,7.98
2017-03-05T00:08:56.638Z,7.94
2017-03-05T00:09:37.380Z,7.94
2017-03-05T00:10:18.037Z,8
2017-03-05T00:10:58.682Z,7.95
2017-03-05T00:11:39.241Z,7.9
2017-03-05T00:12:19.894Z,7.93
2017-03-05T00:13:00.486Z,7.97
2017-03-05T00:13:41.085Z,7.94
2017-03-05T00:14:21.651Z,8
2017-03-05T00:15:02.321Z,7.98
2017-03-05T00:15:42.889Z,7.97
2017-03-05T00:16:24.515Z,7.95
2017-03-05T00:17:05.068Z,7.97
2017-03-05T00:17:45.937Z,7.95
2017-03-05T00:18:26.523Z,8.01
2017-03-05T00:19:07.230Z,8
2017-03-05T00:19:47.817Z,7.97
2017-03-05T00:20:28.466Z,7.98
2017-03-05T00:21:09.087Z,7.97
2017-03-05T00:21:49.747Z,7.98
2017-03-05T00:22:30.424Z,7.94
2017-03-05T00:23:11.065Z,7.94
2017-03-05T00:23:55.316Z,8
2017-03-05T00:24:35.922Z,8.05
2017-03-05T00:25:16.958Z,8
2017-03-05T00:25:57.624Z,7.97
2017-03-05T00:26:38.372Z,8.05
2017-03-05T00:27:19.181Z,8.03
2017-03-05T00:27:59.816Z,8
2017-03-05T00:28:40.446Z,8
2017-03-05T00:29:21.136Z,7.91
2017-03-05T00:30:01.804Z,8
2017-03-05T00:30:42.518Z,7.93
2017-03-05T00:31:23.115Z,8.01
2017-03-05T00:32:03.742Z,8
2017-03-05T00:32:44.416Z,7.93
2017-03-05T00:33:25.113Z,7.94
2017-03-05T00:34:05.692Z,8
2017-03-05T00:34:46.281Z,8
2017-03-05T00:35:26.898Z,8
2017-03-05T00:36:07.616Z,8.03
2017-03-05T00:36:48.266Z,8
2017-03-05T00:37:28.955Z,8.01
2017-03-05T00:38:10.633Z,8.03
2017-03-05T00:38:52.310Z,8.05
2017-03-05T00:39:32.967Z,7.97
2017-03-05T00:40:13.613Z,8.05
2017-03-05T00:40:54.273Z,8.08
2017-03-05T00:41:34.986Z,8.09
2017-03-05T00:42:16.607Z,8.03
2017-03-05T00:42:57.249Z,8.01
2017-03-05T00:43:37.904Z,8.08
2017-03-05T00:44:18.488Z,7.97
2017-03-05T00:44:59.180Z,8.05
2017-03-05T00:45:39.771Z,8.05
2017-03-05T00:46:20.408Z,7.9
2017-03-05T00:47:01.105Z,7.98
2017-03-05T00:47:41.693Z,8.01
2017-03-05T00:48:22.305Z,8.09
2017-03-05T00:49:02.918Z,8.03
2017-03-05T00:49:43.500Z,8.05
2017-03-05T00:50:25.184Z,7.94
2017-03-05T00:51:05.830Z,8.05
2017-03-05T00:51:46.502Z,7.98
2017-03-05T00:52:27.139Z,8
2017-03-05T00:53:07.792Z,7.98
2017-03-05T00:53:48.452Z,8
2017-03-05T00:54:29.142Z,7.98
2017-03-05T00:55:09.728Z,8
2017-03-05T00:55:50.386Z,8.05
2017-03-05T00:56:31.072Z,8.01
2017-03-05T00:57:11.756Z,8
2017-03-05T00:57:52.329Z,7.97
2017-03-05T00:58:33.001Z,8.01
2017-03-05T00:59:13.667Z,7.98
2017-03-05T00:59:54.244Z,7.98
2017-03-05T01:00:34.814Z,8.03
2017-03-05T01:01:15.525Z,7.98
2017-03-05T01:01:56.088Z,7.97
2017-03-05T01:02:36.792Z,7.91
2017-03-05T01:03:18.453Z,7.88
2017-03-05T01:03:59.032Z,7.93
2017-03-05T01:04:39.676Z,7.8
2017-03-05T01:05:20.367Z,7.77
2017-03-05T01:06:00.958Z,7.76
2017-03-05T01:06:41.541Z,7.66
2017-03-05T01:07:22.177Z,7.7
2017-03-05T01:08:02.770Z,7.72
2017-03-05T01:08:43.467Z,7.72
2017-03-05T01:09:24.040Z,7.66
2017-03-05T01:10:05.719Z,7.57
2017-03-05T01:10:46.428Z,7.69
2017-03-05T01:11:27.108Z,7.54
2017-03-05T01:12:07.700Z,7.63
2017-03-05T01:12:48.327Z,7.57
2017-03-05T01:13:28.914Z,7.51
2017-03-05T01:14:09.508Z,7.56
2017-03-05T01:14:50.088Z,7.54
2017-03-05T01:15:30.736Z,7.47
2017-03-05T01:16:11.332Z,7.5
2017-03-05T01:16:52.043Z,7.4
2017-03-05T01:17:32.639Z,7.43
2017-03-05T01:18:13.262Z,7.45
2017-03-05T01:18:53.937Z,7.47
2017-03-05T01:19:34.656Z,7.43
2017-03-05T01:20:15.288Z,7.51
2017-03-05T01:20:55.934Z,7.43
2017-03-05T01:21:36.590Z,7.36
2017-03-05T01:22:17.241Z,7.4
2017-03-05T01:22:57.899Z,7.4
2017-03-05T01:23:38.548Z,7.31
2017-03-05T01:24:19.161Z,7.36
2017-03-05T01:24:59.784Z,7.39
2017-03-05T01:25:40.427Z,7.38
2017-03-05T01:26:21.086Z,7.38
2017-03-05T01:27:01.770Z,7.36
2017-03-05T01:27:42.394Z,7.36
2017-03-05T01:28:23.035Z,7.35
2017-03-05T01:29:03.727Z,7.33
2017-03-05T01:29:44.381Z,7.31
2017-03-05T01:30:24.980Z,7.28
2017-03-05T01:31:05.625Z,7.25
2017-03-05T01:31:46.203Z,7.2
2017-03-05T01:32:26.799Z,7.2
2017-03-05T01:33:07.382Z,7.29
2017-03-05T01:33:47.966Z,7.23
2017-03-05T01:34:28.687Z,7.25
2017-03-05T01:35:09.360Z,7.23
2017-03-05T01:35:49.922Z,7.25
2017-03-05T01:36:30.569Z,7.18
2017-03-05T01:37:11.198Z,7.23
2017-03-05T01:37:51.822Z,7.17
2017-03-05T01:38:32.429Z,7.13
2017-03-05T01:39:13.055Z,7.2
2017-03-05T01:39:53.622Z,7.17
2017-03-05T01:40:34.264Z,7.13
2017-03-05T01:41:14.878Z,7.15
2017-03-05T01:41:55.464Z,7.17
2017-03-05T01:42:36.018Z,7.1
2017-03-05T01:43:16.679Z,7.15
2017-03-05T01:43:57.277Z,7.05
2017-03-05T01:44:38.893Z,6.99
2017-03-05T01:45:19.496Z,7.13
2017-03-05T01:46:00.124Z,7.13
2017-03-05T01:46:40.759Z,7.07
2017-03-05T01:47:21.407Z,7
2017-03-05T01:48:02.079Z,7.11
2017-03-05T01:48:42.733Z,7.02
2017-03-05T01:49:23.384Z,6.99
2017-03-05T01:50:04.894Z,7
2017-03-05T01:50:45.597Z,6.99
2017-03-05T01:51:26.170Z,7.02
2017-03-05T01:52:06.841Z,6.96
2017-03-05T01:52:47.506Z,7
2017-03-05T01:53:28.107Z,7.11
2017-03-05T01:54:08.674Z,7.02
2017-03-05T01:54:49.324Z,7.11
2017-03-05T01:55:30.935Z,6.97
2017-03-05T01:56:13.578Z,6.99
2017-03-05T01:56:54.189Z,7.1
2017-03-05T01:57:34.794Z,7
2017-03-05T01:58:15.401Z,7.13
2017-03-05T01:58:56.088Z,6.97
2017-03-05T01:59:36.654Z,7.13
2017-03-05T02:00:17.313Z,7.02
2017-03-05T02:00:57.975Z,6.99
2017-03-05T02:01:38.615Z,6.96
2017-03-05T02:02:19.270Z,7.1
2017-03-05T02:02:59.919Z,7.13
2017-03-05T02:03:40.575Z,7
2017-03-05T02:04:21.244Z,6.99
2017-03-05T02:05:01.923Z,6.99
2017-03-05T02:05:42.515Z,7.05
2017-03-05T02:06:23.083Z,7.03
2017-03-05T02:07:03.754Z,6.99
2017-03-05T02:07:44.432Z,7.05
2017-03-05T02:08:25.033Z,7.1
2017-03-05T02:09:05.596Z,7
2017-03-05T02:09:46.270Z,7.02
2017-03-05T02:10:26.899Z,7.1
2017-03-05T02:11:07.560Z,7
2017-03-05T02:11:48.197Z,7.03
2017-03-05T02:12:28.871Z,7.14
2017-03-05T02:13:09.518Z,7.07
2017-03-05T02:13:50.186Z,7.17
2017-03-05T02:14:30.835Z,7.11
2017-03-05T02:15:11.484Z,6.97
2017-03-05T02:15:52.126Z,7
2017-03-05T02:16:32.799Z,7.13
2017-03-05T02:17:13.438Z,6.97
2017-03-05T02:17:54.083Z,6.99
2017-03-05T02:18:34.744Z,7.03
2017-03-05T02:19:15.450Z,6.97
2017-03-05T02:19:56.045Z,7.1
2017-03-05T02:20:36.707Z,7.06
2017-03-05T02:21:17.342Z,7.02
2017-03-05T02:21:58.012Z,7
2017-03-05T02:22:39.712Z,7.02
2017-03-05T02:23:20.335Z,6.96
2017-03-05T02:24:01.020Z,6.95
2017-03-05T02:24:41.683Z,6.97
2017-03-05T02:25:22.275Z,6.97
2017-03-05T02:26:02.914Z,6.87
2017-03-05T02:26:43.522Z,6.96
2017-03-05T02:27:24.181Z,6.97
2017-03-05T02:28:04.781Z,6.97
2017-03-05T02:28:45.356Z,6.95
2017-03-05T02:29:26.000Z,6.87
2017-03-05T02:30:06.678Z,6.87
2017-03-05T02:30:47.307Z,6.96
2017-03-05T02:31:27.964Z,6.96
2017-03-05T02:32:08.609Z,6.97
2017-03-05T02:32:49.292Z,7
2017-03-05T02:33:29.921Z,6.97
2017-03-05T02:34:10.583Z,6.93
2017-03-05T02:34:51.224Z,6.96
2017-03-05T02:35:31.882Z,7
2017-03-05T02:36:12.627Z,6.99
2017-03-05T02:36:53.284Z,6.99
2017-03-05T02:37:33.940Z,6.96
2017-03-05T02:38:14.596Z,7
2017-03-05T02:38:55.245Z,7
2017-03-05T02:39:35.919Z,7
2017-03-05T02:40:16.495Z,6.95
2017-03-05T02:40:57.090Z,6.96
2017-03-05T02:41:37.652Z,7.02
2017-03-05T02:42:19.349Z,6.95
2017-03-05T02:43:00.026Z,7
2017-03-05T02:43:40.623Z,6.87
2017-03-05T02:44:21.187Z,6.97
2017-03-05T02:45:01.837Z,7
2017-03-05T02:45:42.512Z,6.84
2017-03-05T02:46:23.165Z,6.97
2017-03-05T02:47:03.797Z,6.87
2017-03-05T02:47:44.449Z,6.96
2017-03-05T02:48:25.128Z,6.99
2017-03-05T02:49:05.757Z,6.89
2017-03-05T02:49:46.353Z,6.96
2017-03-05T02:50:26.948Z,6.95
2017-03-05T02:51:07.530Z,7.02
2017-03-05T02:51:48.995Z,6.99
2017-03-05T02:52:29.680Z,7.05
2017-03-05T02:53:10.273Z,7.02
2017-03-05T02:53:50.865Z,7
2017-03-05T02:54:31.491Z,7.02
2017-03-05T02:55:12.164Z,6.97
2017-03-05T02:55:52.799Z,7.14
2017-03-05T02:56:33.449Z,7
2017-03-05T02:57:14.128Z,7.14
2017-03-05T02:57:54.780Z,7
2017-03-05T02:58:35.430Z,6.99
2017-03-05T02:59:16.062Z,6.99
2017-03-05T02:59:56.702Z,7.06
2017-03-05T03:00:37.277Z,6.96
2017-03-05T03:01:17.960Z,7.13
2017-03-05T03:01:58.538Z,7.11
2017-03-05T03:02:39.267Z,7.05
2017-03-05T03:03:19.865Z,7.13
2017-03-05T03:04:00.445Z,7.14
2017-03-05T03:04:41.081Z,7.13
2017-03-05T03:05:21.758Z,7.11
2017-03-05T03:06:02.384Z,7.15
2017-03-05T03:06:43.036Z,7.07
2017-03-05T03:07:23.692Z,7.21
2017-03-05T03:08:04.354Z,7.13
2017-03-05T03:08:44.997Z,7.13
2017-03-05T03:09:25.683Z,7.24
2017-03-05T03:10:06.362Z,7.2
2017-03-05T03:10:46.944Z,7.17
2017-03-05T03:11:27.531Z,7.17
2017-03-05T03:12:08.177Z,7.17
2017-03-05T03:12:48.876Z,7.15
2017-03-05T03:13:29.454Z,7.18
2017-03-05T03:14:10.014Z,7.15
2017-03-05T03:14:50.687Z,7.18
2017-03-05T03:15:31.268Z,7.17
2017-03-05T03:16:11.862Z,7.29
2017-03-05T03:16:52.433Z,7.29
2017-03-05T03:17:33.077Z,7.25
2017-03-05T03:18:13.674Z,7.25
2017-03-05T03:18:54.369Z,7.29
2017-03-05T03:19:34.952Z,7.29
2017-03-05T03:20:15.600Z,7.24
2017-03-05T03:20:56.281Z,7.24
2017-03-05T03:21:36.878Z,7.29
2017-03-05T03:22:17.449Z,7.24
2017-03-05T03:22:58.088Z,7.25
2017-03-05T03:23:38.710Z,7.32
2017-03-05T03:24:20.313Z,7.33
2017-03-05T03:25:00.888Z,7.31
2017-03-05T03:25:41.542Z,7.29
2017-03-05T03:26:22.193Z,7.33
2017-03-05T03:27:02.847Z,7.29
2017-03-05T03:27:44.517Z,7.31
2017-03-05T03:28:25.179Z,7.35
2017-03-05T03:29:05.835Z,7.29
2017-03-05T03:29:46.484Z,7.32
2017-03-05T03:30:27.134Z,7.32
2017-03-05T03:31:07.791Z,7.38
2017-03-05T03:31:48.449Z,7.38
2017-03-05T03:32:29.012Z,7.36
2017-03-05T03:33:09.647Z,7.35
2017-03-05T03:33:50.299Z,7.36
2017-03-05T03:34:30.950Z,7.33
2017-03-05T03:35:11.605Z,7.45
2017-03-05T03:35:52.257Z,7.36
2017-03-05T03:36:32.912Z,7.38
2017-03-05T03:37:13.564Z,7.32
2017-03-05T03:37:54.215Z,7.35
2017-03-05T03:38:34.877Z,7.4
2017-03-05T03:39:15.519Z,7.38
2017-03-05T03:39:56.173Z,7.36
2017-03-05T03:40:36.755Z,7.39
2017-03-05T03:41:17.354Z,7.35
2017-03-05T03:41:57.926Z,7.4
2017-03-05T03:42:38.592Z,7.38
2017-03-05T03:43:19.266Z,7.36
2017-03-05T03:43:59.963Z,7.38
2017-03-05T03:44:40.542Z,7.35
2017-03-05T03:45:21.181Z,7.35
2017-03-05T03:46:01.832Z,7.38
2017-03-05T03:46:42.485Z,7.43
2017-03-05T03:47:23.154Z,7.38
2017-03-05T03:48:03.817Z,7.43
2017-03-05T03:48:44.461Z,7.39
2017-03-05T03:49:25.097Z,7.36
2017-03-05T03:50:05.795Z,7.4
2017-03-05T03:50:46.493Z,7.4
2017-03-05T03:51:27.068Z,7.33
2017-03-05T03:52:07.723Z,7.33
2017-03-05T03:52:49.335Z,7.38
2017-03-05T03:53:30.949Z,7.39
2017-03-05T03:54:11.511Z,7.4
2017-03-05T03:54:52.177Z,7.42
2017-03-05T03:55:32.828Z,7.38
2017-03-05T03:56:13.487Z,7.4
2017-03-05T03:56:54.136Z,7.38
2017-03-05T03:57:34.787Z,7.4
2017-03-05T03:58:15.445Z,7.43
2017-03-05T03:58:56.103Z,7.36
2017-03-05T03:59:36.750Z,7.43
2017-03-05T04:00:17.378Z,7.35
2017-03-05T04:00:57.957Z,7.36
2017-03-05T04:01:38.599Z,7.4
2017-03-05T04:02:19.235Z,7.4
2017-03-05T04:03:00.501Z,7.43
2017-03-05T04:03:41.164Z,7.42
2017-03-05T04:04:21.806Z,7.39
2017-03-05T04:05:02.374Z,7.43
2017-03-05T04:05:43.036Z,7.39
2017-03-05T04:06:23.667Z,7.43
2017-03-05T04:07:04.245Z,7.4
2017-03-05T04:07:44.900Z,7.39
2017-03-05T04:08:25.520Z,7.43
2017-03-05T04:09:06.100Z,7.42
2017-03-05T04:09:46.729Z,7.38
2017-03-05T04:10:27.392Z,7.39
2017-03-05T04:11:08.055Z,7.39
2017-03-05T04:11:48.703Z,7.43
2017-03-05T04:12:29.358Z,7.43
2017-03-05T04:13:10.521Z,7.4
2017-03-05T04:13:51.158Z,7.36
2017-03-05T04:14:31.841Z,7.33
2017-03-05T04:15:12.479Z,7.45
2017-03-05T04:15:53.124Z,7.36
2017-03-05T04:16:33.790Z,7.4
2017-03-05T04:17:14.421Z,7.4
2017-03-05T04:17:55.076Z,7.35
2017-03-05T04:18:35.754Z,7.42
2017-03-05T04:19:16.391Z,7.39
2017-03-05T04:19:57.048Z,7.43
2017-03-05T04:20:37.706Z,7.42
2017-03-05T04:21:18.354Z,7.38
2017-03-05T04:21:59.006Z,7.42
2017-03-05T04:22:39.661Z,7.4
2017-03-05T04:23:20.311Z,7.35
2017-03-05T04:24:00.961Z,7.35
2017-03-05T04:24:41.618Z,7.4
2017-03-05T04:25:22.257Z,7.36
2017-03-05T04:26:02.925Z,7.38
2017-03-05T04:26:43.574Z,7.38
2017-03-05T04:27:24.139Z,7.42
2017-03-05T04:28:04.784Z,7.36
2017-03-05T04:28:45.432Z,7.4
2017-03-05T04:29:26.097Z,7.39
2017-03-05T04:30:06.741Z,7.4
2017-03-05T04:30:47.400Z,7.33
2017-03-05T04:31:28.048Z,7.4
2017-03-05T04:32:08.695Z,7.39
2017-03-05T04:32:49.350Z,7.4
2017-03-05T04:33:30.010Z,7.39
2017-03-05T04:34:10.659Z,7.38
2017-03-05T04:34:51.321Z,7.38
2017-03-05T04:35:31.943Z,7.35
2017-03-05T04:36:12.512Z,7.33
2017-03-05T04:36:53.175Z,7.36
2017-03-05T04:37:33.905Z,7.35
2017-03-05T04:38:14.472Z,7.36
2017-03-05T04:38:55.122Z,7.4
2017-03-05T04:39:35.865Z,7.45
2017-03-05T04:40:16.434Z,7.38
2017-03-05T04:40:57.183Z,7.45
2017-03-05T04:41:37.836Z,7.42
2017-03-05T04:42:18.501Z,7.4
2017-03-05T04:42:59.150Z,7.39
2017-03-05T04:43:39.830Z,7.38
2017-03-05T04:44:20.452Z,7.39
2017-03-05T04:45:01.087Z,7.4
2017-03-05T04:45:41.663Z,7.36
2017-03-05T04:46:22.315Z,7.38
2017-03-05T04:47:02.940Z,7.39
2017-03-05T04:47:43.497Z,7.38
2017-03-05T04:48:24.171Z,7.38
2017-03-05T04:49:04.798Z,7.39
2017-03-05T04:49:45.364Z,7.38
2017-03-05T04:50:26.021Z,7.4
2017-03-05T04:51:06.681Z,7.4
2017-03-05T04:51:47.317Z,7.39
2017-03-05T04:52:27.895Z,7.4
2017-03-05T04:53:08.537Z,7.47
2017-03-05T04:53:49.189Z,7.45
2017-03-05T04:54:29.835Z,7.36
2017-03-05T04:55:10.486Z,7.39
2017-03-05T04:55:52.173Z,7.36
2017-03-05T04:56:32.823Z,7.4
2017-03-05T04:57:13.467Z,7.43
2017-03-05T04:57:54.116Z,7.39
2017-03-05T04:58:34.782Z,7.39
2017-03-05T04:59:15.438Z,7.32
2017-03-05T04:59:56.077Z,7.35
2017-03-05T05:00:36.732Z,7.39
2017-03-05T05:01:17.383Z,7.38
2017-03-05T05:01:58.040Z,7.35
2017-03-05T05:02:38.610Z,7.32
2017-03-05T05:03:19.257Z,7.38
2017-03-05T05:03:59.891Z,7.33
2017-03-05T05:04:40.546Z,7.36
2017-03-05T05:05:21.111Z,7.31
2017-03-05T05:06:01.741Z,7.35
2017-03-05T05:06:42.322Z,7.33
2017-03-05T05:07:22.955Z,7.4
2017-03-05T05:08:03.549Z,7.33
2017-03-05T05:08:44.143Z,7.36
2017-03-05T05:09:24.706Z,7.33
2017-03-05T05:10:05.379Z,7.35
2017-03-05T05:10:45.997Z,7.38
2017-03-05T05:11:26.568Z,7.4
2017-03-05T05:12:07.221Z,7.45
2017-03-05T05:12:47.855Z,7.36
2017-03-05T05:13:28.414Z,7.42
2017-03-05T05:14:09.081Z,7.45
2017-03-05T05:14:49.708Z,7.38
2017-03-05T05:15:30.325Z,7.38
2017-03-05T05:16:10.921Z,7.38
2017-03-05T05:16:51.590Z,7.45
2017-03-05T05:17:32.259Z,7.45
2017-03-05T05:18:12.897Z,7.48
2017-03-05T05:18:53.545Z,7.4
2017-03-05T05:19:34.200Z,7.45
2017-03-05T05:20:14.798Z,7.45
2017-03-05T05:20:56.303Z,7.43
2017-03-05T05:21:36.880Z,7.45
2017-03-05T05:22:17.527Z,7.43
2017-03-05T05:22:58.113Z,7.47
2017-03-05T05:23:38.707Z,7.42
2017-03-05T05:24:19.280Z,7.45
2017-03-05T05:24:59.941Z,7.53
2017-03-05T05:25:40.605Z,7.42
2017-03-05T05:26:21.243Z,7.4
2017-03-05T05:27:01.892Z,7.39
2017-03-05T05:27:42.546Z,7.39
2017-03-05T05:28:23.214Z,7.38
2017-03-05T05:29:03.852Z,7.35
2017-03-05T05:29:44.510Z,7.45
2017-03-05T05:30:25.185Z,7.38
2017-03-05T05:31:05.827Z,7.35
2017-03-05T05:31:46.472Z,7.4
2017-03-05T05:32:27.125Z,7.39
2017-03-05T05:33:07.778Z,7.39
2017-03-05T05:33:48.425Z,7.35
2017-03-05T05:34:29.088Z,7.36
2017-03-05T05:35:09.736Z,7.32
2017-03-05T05:35:50.384Z,7.38
2017-03-05T05:36:31.041Z,7.29
2017-03-05T05:37:11.687Z,7.36
2017-03-05T05:37:52.350Z,7.35
2017-03-05T05:38:33.000Z,7.25
2017-03-05T05:39:13.568Z,7.31
2017-03-05T05:39:54.200Z,7.29
2017-03-05T05:40:34.848Z,7.33
2017-03-05T05:41:15.501Z,7.25
2017-03-05T05:41:56.191Z,7.28
2017-03-05T05:42:36.811Z,7.24
2017-03-05T05:43:17.482Z,7.31
2017-03-05T05:43:58.116Z,7.28
2017-03-05T05:44:38.773Z,7.24
2017-03-05T05:45:19.423Z,7.21
2017-03-05T05:46:00.083Z,7.25
2017-03-05T05:46:40.731Z,7.25
2017-03-05T05:47:21.389Z,7.21
2017-03-05T05:48:02.038Z,7.31
2017-03-05T05:48:42.688Z,7.28
2017-03-05T05:49:23.337Z,7.25
2017-03-05T05:50:03.988Z,7.33
2017-03-05T05:50:44.650Z,7.28
2017-03-05T05:51:25.306Z,7.29
2017-03-05T05:52:05.954Z,7.32
2017-03-05T05:52:46.612Z,7.32
2017-03-05T05:53:27.266Z,7.33
2017-03-05T05:54:07.918Z,7.29
2017-03-05T05:54:48.570Z,7.29
2017-03-05T05:55:29.157Z,7.32
2017-03-05T05:56:09.748Z,7.29
2017-03-05T05:56:50.321Z,7.29
2017-03-05T05:57:30.978Z,7.33
2017-03-05T05:58:11.656Z,7.24
2017-03-05T05:58:52.264Z,7.29
2017-03-05T05:59:32.826Z,7.33
2017-03-05T06:00:13.491Z,7.28
2017-03-05T06:00:54.112Z,7.31
2017-03-05T06:01:34.767Z,7.33
2017-03-05T06:02:15.419Z,7.29
2017-03-05T06:02:56.076Z,7.31
2017-03-05T06:03:36.728Z,7.28
2017-03-05T06:04:17.377Z,7.29
2017-03-05T06:04:57.935Z,7.33
2017-03-05T06:05:38.608Z,7.29
2017-03-05T06:06:19.244Z,7.33
2017-03-05T06:06:59.901Z,7.31
2017-03-05T06:07:40.567Z,7.24
2017-03-05T06:08:21.216Z,7.31
2017-03-05T06:09:01.802Z,7.31
2017-03-05T06:09:42.470Z,7.28
2017-03-05T06:10:23.055Z,7.31
2017-03-05T06:11:03.627Z,7.31
2017-03-05T06:11:44.284Z,7.33
2017-03-05T06:12:24.964Z,7.29
2017-03-05T06:13:05.567Z,7.24
2017-03-05T06:13:46.120Z,7.32
2017-03-05T06:14:26.777Z,7.28
2017-03-05T06:15:07.369Z,7.33
2017-03-05T06:15:47.977Z,7.31
2017-03-05T06:16:28.540Z,7.33
2017-03-05T06:17:09.184Z,7.29
2017-03-05T06:17:49.832Z,7.31
2017-03-05T06:18:31.424Z,7.32
2017-03-05T06:19:14.623Z,7.33
2017-03-05T06:19:55.344Z,7.33
2017-03-05T06:20:36.001Z,7.39
2017-03-05T06:21:16.676Z,7.36
2017-03-05T06:21:57.400Z,7.35
2017-03-05T06:22:38.058Z,7.38
2017-03-05T06:23:18.711Z,7.35
2017-03-05T06:23:59.362Z,7.38
2017-03-05T06:24:40.013Z,7.32
2017-03-05T06:25:20.685Z,7.36
2017-03-05T06:26:01.439Z,7.31
2017-03-05T06:26:42.086Z,7.35
2017-03-05T06:27:22.732Z,7.36
2017-03-05T06:28:03.385Z,7.38
2017-03-05T06:28:44.032Z,7.43
2017-03-05T06:29:24.699Z,7.36
2017-03-05T06:30:05.343Z,7.35
2017-03-05T06:30:45.978Z,7.47
2017-03-05T06:31:26.554Z,7.47
2017-03-05T06:32:07.199Z,7.36
2017-03-05T06:32:47.839Z,7.45
2017-03-05T06:33:28.397Z,7.4
2017-03-05T06:34:09.044Z,7.38
2017-03-05T06:34:49.604Z,7.45
2017-03-05T06:35:30.257Z,7.45
2017-03-05T06:36:10.909Z,7.45
2017-03-05T06:36:51.574Z,7.51
2017-03-05T06:37:32.216Z,7.47
2017-03-05T06:38:12.868Z,7.47
2017-03-05T06:38:53.528Z,7.53
2017-03-05T06:39:34.188Z,7.48
2017-03-05T06:40:14.929Z,7.42
2017-03-05T06:40:55.591Z,7.48
2017-03-05T06:41:36.260Z,7.42
2017-03-05T06:42:16.991Z,7.53
2017-03-05T06:42:57.644Z,7.51
2017-03-05T06:43:38.299Z,7.6
2017-03-05T06:44:18.962Z,7.51
2017-03-05T06:44:59.649Z,7.56
2017-03-05T06:45:43.273Z,7.56
2017-03-05T06:46:23.971Z,7.53
2017-03-05T06:47:04.539Z,7.53
2017-03-05T06:47:45.204Z,7.56
2017-03-05T06:48:25.776Z,7.48
2017-03-05T06:49:06.434Z,7.5
2017-03-05T06:49:47.151Z,7.53
2017-03-05T06:50:27.692Z,7.53
2017-03-05T06:51:08.376Z,7.47
2017-03-05T06:51:49.091Z,7.56
2017-03-05T06:52:29.679Z,7.56
2017-03-05T06:53:10.413Z,7.54
2017-03-05T06:53:51.147Z,7.61
2017-03-05T06:54:31.715Z,7.51
2017-03-05T06:55:12.376Z,7.61
2017-03-05T06:55:53.056Z,7.63
2017-03-05T06:56:33.789Z,7.58
2017-03-05T06:57:14.443Z,7.6
2017-03-05T06:57:55.082Z,7.54
2017-03-05T06:58:35.729Z,7.6
2017-03-05T06:59:16.387Z,7.72
2017-03-05T06:59:57.037Z,7.7
2017-03-05T07:00:37.739Z,7.66
2017-03-05T07:01:18.438Z,7.69
2017-03-05T07:01:58.994Z,7.61
2017-03-05T07:02:39.547Z,7.67
2017-03-05T07:03:20.214Z,7.7
2017-03-05T07:04:00.900Z,7.7
2017-03-05T07:04:42.628Z,7.77
2017-03-05T07:05:23.206Z,7.67
2017-03-05T07:06:03.952Z,7.85
2017-03-05T07:06:44.637Z,7.8
2017-03-05T07:07:25.343Z,7.72
2017-03-05T07:08:05.893Z,7.73
2017-03-05T07:08:46.563Z,7.7
2017-03-05T07:09:27.249Z,7.82
2017-03-05T07:10:07.954Z,7.72
2017-03-05T07:10:48.508Z,7.77
2017-03-05T07:11:30.129Z,7.75
2017-03-05T07:12:10.791Z,7.77
2017-03-05T07:12:51.487Z,7.76
2017-03-05T07:13:32.055Z,7.79
2017-03-05T07:14:12.688Z,7.75
2017-03-05T07:14:53.388Z,7.83
2017-03-05T07:15:34.098Z,7.8
2017-03-05T07:16:14.750Z,7.85
2017-03-05T07:16:55.503Z,7.83
2017-03-05T07:17:36.163Z,7.82
2017-03-05T07:18:16.811Z,7.82
2017-03-05T07:18:57.568Z,7.93
2017-03-05T07:19:39.244Z,7.88
2017-03-05T07:20:19.902Z,7.94
2017-03-05T07:21:00.554Z,7.77
2017-03-05T07:21:42.224Z,7.9
2017-03-05T07:22:22.879Z,7.95
2017-03-05T07:23:03.526Z,7.97
2017-03-05T07:23:44.189Z,7.97
2017-03-05T07:24:24.934Z,8.03
2017-03-05T07:25:05.597Z,8.06
2017-03-05T07:25:46.250Z,7.94
2017-03-05T07:26:26.898Z,8
2017-03-05T07:27:07.561Z,8.06
2017-03-05T07:27:48.202Z,8
2017-03-05T07:28:28.855Z,8.03
2017-03-05T07:29:09.508Z,8.16
2017-03-05T07:29:50.165Z,8.15
2017-03-05T07:30:30.724Z,8.12
2017-03-05T07:31:11.288Z,8.13
2017-03-05T07:31:52.022Z,8.12
2017-03-05T07:32:32.721Z,8.09
2017-03-05T07:33:13.431Z,8.06
2017-03-05T07:33:53.984Z,8.06
2017-03-05T07:34:34.642Z,8.05
2017-03-05T07:35:15.346Z,8
2017-03-05T07:35:55.990Z,8.01
2017-03-05T07:36:36.639Z,7.95
2017-03-05T07:37:17.296Z,8.05
2017-03-05T07:37:57.952Z,7.95
2017-03-05T07:38:38.600Z,7.95
2017-03-05T07:39:19.255Z,8.03
2017-03-05T07:39:59.906Z,7.93
2017-03-05T07:40:40.506Z,8.01
2017-03-05T07:41:21.178Z,8.03
2017-03-05T07:42:02.839Z,8.03
2017-03-05T07:42:43.385Z,8.03
2017-03-05T07:43:25.075Z,8.01
2017-03-05T07:44:05.817Z,8.09
2017-03-05T07:44:46.356Z,8.08
2017-03-05T07:45:27.023Z,8.12
2017-03-05T07:46:07.685Z,8.15
2017-03-05T07:46:48.337Z,8.13
2017-03-05T07:47:29.002Z,8.15
2017-03-05T07:48:09.645Z,8.26
2017-03-05T07:48:50.320Z,8.28
2017-03-05T07:49:31.063Z,8.26
2017-03-05T07:50:11.718Z,8.23
2017-03-05T07:50:52.375Z,8.33
2017-03-05T07:51:33.123Z,8.33
2017-03-05T07:52:13.770Z,8.38
2017-03-05T07:52:54.544Z,8.42
2017-03-05T07:53:35.269Z,8.36
2017-03-05T07:54:15.983Z,8.36
2017-03-05T07:54:56.735Z,8.37
2017-03-05T07:55:37.501Z,8.42
2017-03-05T07:56:18.220Z,8.44
2017-03-05T07:56:59.905Z,8.44
2017-03-05T07:57:40.656Z,8.48
2017-03-05T07:58:21.582Z,8.48
2017-03-05T07:59:02.252Z,8.48
2017-03-05T07:59:42.883Z,8.46
2017-03-05T08:00:23.673Z,8.48
2017-03-05T08:01:04.423Z,8.51
2017-03-05T08:01:45.181Z,8.55
2017-03-05T08:02:25.943Z,8.51
2017-03-05T08:03:06.678Z,8.49
2017-03-05T08:03:47.335Z,8.56
2017-03-05T08:04:28.098Z,8.51
2017-03-05T08:05:08.727Z,8.52
2017-03-05T08:05:49.404Z,8.53
2017-03-05T08:06:30.155Z,8.51
2017-03-05T08:07:10.788Z,8.46
2017-03-05T08:07:51.446Z,8.38
2017-03-05T08:08:32.210Z,8.48
2017-03-05T08:09:12.973Z,8.44
2017-03-05T08:09:53.709Z,8.38
2017-03-05T08:10:34.478Z,8.48
2017-03-05T08:11:15.245Z,8.51
2017-03-05T08:11:55.987Z,8.51
2017-03-05T08:12:37.135Z,8.48
2017-03-05T08:13:17.689Z,8.51
2017-03-05T08:13:58.356Z,8.51
2017-03-05T08:14:39.108Z,8.61
2017-03-05T08:15:19.883Z,8.63
2017-03-05T08:16:00.619Z,8.67
2017-03-05T08:16:41.273Z,8.69
2017-03-05T08:17:22.041Z,8.66
2017-03-05T08:18:02.783Z,8.74
2017-03-05T08:18:43.443Z,8.71
2017-03-05T08:19:24.205Z,8.76
2017-03-05T08:20:04.959Z,8.66
2017-03-05T08:20:45.705Z,8.69
2017-03-05T08:21:26.461Z,8.76
2017-03-05T08:22:08.153Z,8.67
2017-03-05T08:22:48.891Z,8.73
2017-03-05T08:23:29.556Z,8.7
2017-03-05T08:24:10.210Z,8.76
2017-03-05T08:24:50.857Z,8.88
2017-03-05T08:25:31.505Z,8.91
2017-03-05T08:26:12.154Z,8.85
2017-03-05T08:26:52.799Z,8.87
2017-03-05T08:27:33.467Z,8.87
2017-03-05T08:28:14.135Z,8.84
2017-03-05T08:28:54.756Z,8.85
2017-03-05T08:29:35.411Z,8.94
2017-03-05T08:30:16.099Z,8.94
2017-03-05T08:30:56.784Z,8.95
2017-03-05T08:31:37.386Z,8.89
2017-03-05T08:32:18.032Z,8.91
2017-03-05T08:32:58.687Z,8.92
2017-03-05T08:33:39.340Z,8.95
2017-03-05T08:34:19.999Z,8.95
2017-03-05T08:35:00.644Z,8.97
2017-03-05T08:35:41.300Z,8.95
2017-03-05T08:36:21.956Z,8.88
2017-03-05T08:37:02.607Z,8.87
2017-03-05T08:37:43.354Z,8.99
2017-03-05T08:38:24.332Z,9
2017-03-05T08:39:04.911Z,8.97
2017-03-05T08:39:45.556Z,9.02
2017-03-05T08:40:26.163Z,8.97
2017-03-05T08:41:06.738Z,9.02
2017-03-05T08:41:47.428Z,9
2017-03-05T08:42:28.016Z,8.97
2017-03-05T08:43:08.564Z,9.03
2017-03-05T08:43:49.302Z,8.95
2017-03-05T08:44:29.933Z,9
2017-03-05T08:45:10.508Z,9
2017-03-05T08:45:51.138Z,9.02
2017-03-05T08:46:31.728Z,9.04
2017-03-05T08:47:12.296Z,9.03
2017-03-05T08:47:52.945Z,9.03
2017-03-05T08:48:33.543Z,9.16
2017-03-05T08:49:14.138Z,9.1
2017-03-05T08:49:54.705Z,9.14
2017-03-05T08:50:35.356Z,9.26
2017-03-05T08:51:15.952Z,9.25
2017-03-05T08:51:56.546Z,9.25
2017-03-05T08:52:37.112Z,9.25
2017-03-05T08:53:17.776Z,9.25
2017-03-05T08:53:58.356Z,9.26
2017-03-05T08:54:38.953Z,9.29
2017-03-05T08:55:19.534Z,9.36
2017-03-05T08:56:01.240Z,9.39
2017-03-05T08:56:43.833Z,9.4
2017-03-05T08:57:24.485Z,9.44
2017-03-05T08:58:05.144Z,9.37
2017-03-05T08:58:46.822Z,9.44
2017-03-05T08:59:28.490Z,9.39
2017-03-05T09:00:09.147Z,9.39
2017-03-05T09:00:49.802Z,9.4
2017-03-05T09:01:30.458Z,9.4
2017-03-05T09:02:11.112Z,9.39
2017-03-05T09:02:51.765Z,9.43
2017-03-05T09:03:32.411Z,9.48
2017-03-05T09:04:14.092Z,9.55
2017-03-05T09:04:54.744Z,9.56
2017-03-05T09:05:35.346Z,9.51
2017-03-05T09:06:15.916Z,9.54